sensor_id;sensor_type;location;lat;lon;timestamp;pressure;altitude;pressure_sealevel;temperature;humidity
77041;BME280;65974;42.664;23.264;2023-08-01T00:03:58;94105.06;;;19.94;64.36
77041;BME280;65974;42.664;23.264;2023-08-01T00:06:23;94111.38;;;19.91;64.91
77041;BME280;65974;42.664;23.264;2023-08-01T00:08:50;94110.63;;;19.90;65.06
77041;BME280;65974;42.664;23.264;2023-08-01T00:11:16;94105.47;;;19.83;65.13
77041;BME280;65974;42.664;23.264;2023-08-01T00:13:41;94104.72;;;19.83;65.28
77041;BME280;65974;42.664;23.264;2023-08-01T00:16:08;94102.72;;;19.74;65.91
77041;BME280;65974;42.664;23.264;2023-08-01T00:18:34;94101.81;;;19.68;66.13
77041;BME280;65974;42.664;23.264;2023-08-01T00:20:59;94096.84;;;19.67;65.70
77041;BME280;65974;42.664;23.264;2023-08-01T00:23:25;94096.84;;;19.67;65.41
77041;BME280;65974;42.664;23.264;2023-08-01T00:25:50;94100.63;;;19.69;65.29
77041;BME280;65974;42.664;23.264;2023-08-01T00:28:22;94093.91;;;19.74;65.54
77041;BME280;65974;42.664;23.264;2023-08-01T00:30:47;94094.59;;;19.65;65.97
77041;BME280;65974;42.664;23.264;2023-08-01T00:33:13;94095.94;;;19.61;66.13
77041;BME280;65974;42.664;23.264;2023-08-01T00:35:39;94096.50;;;19.56;66.26
77041;BME280;65974;42.664;23.264;2023-08-01T00:38:05;94101.09;;;19.46;66.94
77041;BME280;65974;42.664;23.264;2023-08-01T00:40:31;94096.13;;;19.45;66.80
77041;BME280;65974;42.664;23.264;2023-08-01T00:42:57;94096.09;;;19.36;67.18
77041;BME280;65974;42.664;23.264;2023-08-01T00:45:24;94099.63;;;19.32;67.49
77041;BME280;65974;42.664;23.264;2023-08-01T00:47:54;94097.69;;;19.33;67.40
77041;BME280;65974;42.664;23.264;2023-08-01T00:50:19;94092.19;;;19.37;67.26
77041;BME280;65974;42.664;23.264;2023-08-01T00:52:46;94086.47;;;19.34;67.29
77041;BME280;65974;42.664;23.264;2023-08-01T00:55:12;94085.81;;;19.30;67.36
77041;BME280;65974;42.664;23.264;2023-08-01T00:57:38;94083.69;;;19.25;67.11
77041;BME280;65974;42.664;23.264;2023-08-01T01:00:03;94083.69;;;19.25;67.26
77041;BME280;65974;42.664;23.264;2023-08-01T01:02:29;94086.34;;;19.16;67.77
77041;BME280;65974;42.664;23.264;2023-08-01T01:04:55;94081.81;;;19.13;67.92
77041;BME280;65974;42.664;23.264;2023-08-01T01:07:21;94085.97;;;19.05;68.12
77041;BME280;65974;42.664;23.264;2023-08-01T01:09:48;94084.13;;;19.02;68.40
77041;BME280;65974;42.664;23.264;2023-08-01T01:12:14;94082.75;;;18.98;68.41
77041;BME280;65974;42.664;23.264;2023-08-01T01:14:39;94082.56;;;18.92;68.67
77041;BME280;65974;42.664;23.264;2023-08-01T01:17:05;94075.91;;;18.84;68.86
77041;BME280;65974;42.664;23.264;2023-08-01T01:19:30;94072.28;;;18.78;69.30
77041;BME280;65974;42.664;23.264;2023-08-01T01:21:56;94067.88;;;18.72;69.03
77041;BME280;65974;42.664;23.264;2023-08-01T01:24:22;94065.59;;;18.70;69.00
77041;BME280;65974;42.664;23.264;2023-08-01T01:26:49;94064.88;;;18.70;69.19
77041;BME280;65974;42.664;23.264;2023-08-01T01:29:15;94064.41;;;18.71;68.59
77041;BME280;65974;42.664;23.264;2023-08-01T01:31:41;94069.19;;;18.67;68.75
77041;BME280;65974;42.664;23.264;2023-08-01T01:34:07;94062.72;;;18.65;68.94
77041;BME280;65974;42.664;23.264;2023-08-01T01:36:33;94057.50;;;18.70;68.29
77041;BME280;65974;42.664;23.264;2023-08-01T01:38:59;94055.75;;;18.76;68.03
77041;BME280;65974;42.664;23.264;2023-08-01T01:41:25;94057.88;;;18.81;67.74
77041;BME280;65974;42.664;23.264;2023-08-01T01:43:50;94060.34;;;18.88;66.88
77041;BME280;65974;42.664;23.264;2023-08-01T01:46:16;94059.44;;;18.91;67.27
77041;BME280;65974;42.664;23.264;2023-08-01T01:48:41;94059.03;;;18.93;67.38
77041;BME280;65974;42.664;23.264;2023-08-01T01:51:07;94062.78;;;18.95;67.76
77041;BME280;65974;42.664;23.264;2023-08-01T01:53:33;94067.69;;;18.88;67.84
77041;BME280;65974;42.664;23.264;2023-08-01T01:55:58;94067.50;;;18.82;68.00
77041;BME280;65974;42.664;23.264;2023-08-01T01:58:24;94069.22;;;18.76;68.38
77041;BME280;65974;42.664;23.264;2023-08-01T02:00:49;94065.03;;;18.75;67.78
77041;BME280;65974;42.664;23.264;2023-08-01T02:03:15;94063.53;;;18.74;67.85
77041;BME280;65974;42.664;23.264;2023-08-01T02:05:40;94063.22;;;18.72;67.74
77041;BME280;65974;42.664;23.264;2023-08-01T02:08:07;94067.88;;;18.72;67.67
77041;BME280;65974;42.664;23.264;2023-08-01T02:10:32;94062.72;;;18.65;67.84
77041;BME280;65974;42.664;23.264;2023-08-01T02:12:58;94067.97;;;18.68;67.18
77041;BME280;65974;42.664;23.264;2023-08-01T02:15:23;94062.84;;;18.61;67.30
77041;BME280;65974;42.664;23.264;2023-08-01T02:17:49;94061.31;;;18.60;67.33
77041;BME280;65974;42.664;23.264;2023-08-01T02:20:15;94067.84;;;18.50;67.98
77041;BME280;65974;42.664;23.264;2023-08-01T02:22:40;94061.88;;;18.42;67.96
77041;BME280;65974;42.664;23.264;2023-08-01T02:25:06;94064.06;;;18.35;68.40
77041;BME280;65974;42.664;23.264;2023-08-01T02:27:31;94067.00;;;18.28;68.08
77041;BME280;65974;42.664;23.264;2023-08-01T02:29:57;94054.72;;;18.27;68.03
77041;BME280;65974;42.664;23.264;2023-08-01T02:32:22;94059.03;;;18.24;67.82
77041;BME280;65974;42.664;23.264;2023-08-01T02:34:48;94064.28;;;18.28;67.22
77041;BME280;65974;42.664;23.264;2023-08-01T02:37:13;94072.28;;;18.31;66.52
77041;BME280;65974;42.664;23.264;2023-08-01T02:39:38;94061.59;;;18.28;67.28
77041;BME280;65974;42.664;23.264;2023-08-01T02:42:04;94056.09;;;18.31;67.60
77041;BME280;65974;42.664;23.264;2023-08-01T02:44:29;94056.09;;;18.31;67.37
77041;BME280;65974;42.664;23.264;2023-08-01T02:46:55;94061.59;;;18.28;67.42
77041;BME280;65974;42.664;23.264;2023-08-01T02:49:20;94057.50;;;18.23;67.85
77041;BME280;65974;42.664;23.264;2023-08-01T02:51:46;94063.47;;;18.18;68.05
77041;BME280;65974;42.664;23.264;2023-08-01T02:54:11;94067.13;;;18.12;68.51
77041;BME280;65974;42.664;23.264;2023-08-01T02:56:37;94060.66;;;18.09;68.56
77041;BME280;65974;42.664;23.264;2023-08-01T02:59:09;94064.16;;;17.97;68.99
77041;BME280;65974;42.664;23.264;2023-08-01T03:01:36;94062.44;;;17.91;69.04
77041;BME280;65974;42.664;23.264;2023-08-01T03:04:05;94056.50;;;17.83;69.11
77041;BME280;65974;42.664;23.264;2023-08-01T03:06:32;94063.16;;;17.78;69.13
77041;BME280;65974;42.664;23.264;2023-08-01T03:08:58;94066.50;;;17.70;69.23
77041;BME280;65974;42.664;23.264;2023-08-01T03:11:24;94058.34;;;17.61;69.71
77041;BME280;65974;42.664;23.264;2023-08-01T03:13:50;94058.44;;;17.57;69.74
77041;BME280;65974;42.664;23.264;2023-08-01T03:16:16;94053.16;;;17.54;69.67
77041;BME280;65974;42.664;23.264;2023-08-01T03:18:42;94053.28;;;17.50;69.57
77041;BME280;65974;42.664;23.264;2023-08-01T03:21:08;94057.97;;;17.46;69.55
77041;BME280;65974;42.664;23.264;2023-08-01T03:23:34;94064.22;;;17.43;69.68
77041;BME280;65974;42.664;23.264;2023-08-01T03:25:59;94062.38;;;17.40;69.29
77041;BME280;65974;42.664;23.264;2023-08-01T03:28:28;94064.84;;;17.35;69.00
77041;BME280;65974;42.664;23.264;2023-08-01T03:30:53;94067.31;;;17.29;69.32
77041;BME280;65974;42.664;23.264;2023-08-01T03:33:22;94067.66;;;17.31;69.18
77041;BME280;65974;42.664;23.264;2023-08-01T03:35:47;94065.59;;;17.23;69.19
77041;BME280;65974;42.664;23.264;2023-08-01T03:38:13;94061.72;;;17.24;68.93
77041;BME280;65974;42.664;23.264;2023-08-01T03:40:39;94073.25;;;17.24;68.61
77041;BME280;65974;42.664;23.264;2023-08-01T03:43:04;94067.84;;;17.24;68.70
77041;BME280;65974;42.664;23.264;2023-08-01T03:45:31;94062.03;;;17.26;68.19
77041;BME280;65974;42.664;23.264;2023-08-01T03:47:56;94071.19;;;17.28;67.80
77041;BME280;65974;42.664;23.264;2023-08-01T03:50:22;94066.13;;;17.30;67.51
77041;BME280;65974;42.664;23.264;2023-08-01T03:52:47;94071.72;;;17.36;67.37
77041;BME280;65974;42.664;23.264;2023-08-01T03:55:13;94064.66;;;17.42;67.35
77041;BME280;65974;42.664;23.264;2023-08-01T03:57:38;94062.28;;;17.44;67.11
77041;BME280;65974;42.664;23.264;2023-08-01T04:00:07;94074.06;;;17.50;66.96
77041;BME280;65974;42.664;23.264;2023-08-01T04:02:42;94072.22;;;17.59;66.70
77041;BME280;65974;42.664;23.264;2023-08-01T04:05:08;94077.72;;;17.68;66.58
77041;BME280;65974;42.664;23.264;2023-08-01T04:07:35;94079.44;;;17.75;66.13
77041;BME280;65974;42.664;23.264;2023-08-01T04:10:01;94074.06;;;17.75;66.52
77041;BME280;65974;42.664;23.264;2023-08-01T04:12:27;94066.63;;;17.79;66.01
77041;BME280;65974;42.664;23.264;2023-08-01T04:14:53;94076.09;;;17.83;66.22
77041;BME280;65974;42.664;23.264;2023-08-01T04:17:18;94068.66;;;17.88;65.84
77041;BME280;65974;42.664;23.264;2023-08-01T04:19:43;94079.22;;;17.95;65.59
77041;BME280;65974;42.664;23.264;2023-08-01T04:22:09;94076.28;;;18.02;65.82
77041;BME280;65974;42.664;23.264;2023-08-01T04:24:34;94083.09;;;18.06;65.41
77041;BME280;65974;42.664;23.264;2023-08-01T04:27:00;94083.94;;;18.16;65.63
77041;BME280;65974;42.664;23.264;2023-08-01T04:29:25;94090.63;;;18.24;65.82
77041;BME280;65974;42.664;23.264;2023-08-01T04:31:50;94088.03;;;18.33;66.08
77041;BME280;65974;42.664;23.264;2023-08-01T04:34:16;94081.97;;;18.41;66.02
77041;BME280;65974;42.664;23.264;2023-08-01T04:36:41;94095.00;;;18.43;65.64
77041;BME280;65974;42.664;23.264;2023-08-01T04:39:07;94090.38;;;18.43;66.04
77041;BME280;65974;42.664;23.264;2023-08-01T04:41:32;94083.06;;;18.44;66.10
77041;BME280;65974;42.664;23.264;2023-08-01T04:43:57;94087.47;;;18.50;65.90
77041;BME280;65974;42.664;23.264;2023-08-01T04:46:23;94083.44;;;18.55;66.18
77041;BME280;65974;42.664;23.264;2023-08-01T04:48:48;94086.81;;;18.59;65.91
77041;BME280;65974;42.664;23.264;2023-08-01T04:51:14;94081.41;;;18.59;65.24
77041;BME280;65974;42.664;23.264;2023-08-01T04:53:39;94079.13;;;18.57;65.36
77041;BME280;65974;42.664;23.264;2023-08-01T04:56:05;94080.19;;;18.60;65.47
77041;BME280;65974;42.664;23.264;2023-08-01T04:58:30;94078.91;;;18.65;65.16
77041;BME280;65974;42.664;23.264;2023-08-01T05:00:55;94083.41;;;18.68;65.01
77041;BME280;65974;42.664;23.264;2023-08-01T05:03:22;94082.84;;;18.73;64.82
77041;BME280;65974;42.664;23.264;2023-08-01T05:05:48;94084.25;;;18.77;64.91
77041;BME280;65974;42.664;23.264;2023-08-01T05:08:14;94077.91;;;18.71;65.05
77041;BME280;65974;42.664;23.264;2023-08-01T05:10:39;94082.72;;;18.76;65.07
77041;BME280;65974;42.664;23.264;2023-08-01T05:13:05;94082.19;;;18.81;65.10
77041;BME280;65974;42.664;23.264;2023-08-01T05:15:31;94081.63;;;18.86;64.81
77041;BME280;65974;42.664;23.264;2023-08-01T05:17:56;94090.03;;;18.88;64.36
77041;BME280;65974;42.664;23.264;2023-08-01T05:20:21;94088.09;;;18.89;64.31
77041;BME280;65974;42.664;23.264;2023-08-01T05:22:47;94079.88;;;18.92;64.26
77041;BME280;65974;42.664;23.264;2023-08-01T05:25:12;94086.22;;;18.98;64.38
77041;BME280;65974;42.664;23.264;2023-08-01T05:27:38;94093.00;;;19.03;64.30
77041;BME280;65974;42.664;23.264;2023-08-01T05:30:03;94098.25;;;19.06;64.20
77041;BME280;65974;42.664;23.264;2023-08-01T05:32:29;94094.25;;;19.11;63.87
77041;BME280;65974;42.664;23.264;2023-08-01T05:34:54;94095.94;;;19.17;63.77
77041;BME280;65974;42.664;23.264;2023-08-01T05:37:20;94094.47;;;19.25;63.59
77041;BME280;65974;42.664;23.264;2023-08-01T05:39:45;94090.91;;;19.28;63.46
77041;BME280;65974;42.664;23.264;2023-08-01T05:42:10;94094.69;;;19.31;63.33
77041;BME280;65974;42.664;23.264;2023-08-01T05:44:36;94089.16;;;19.34;63.35
77041;BME280;65974;42.664;23.264;2023-08-01T05:47:01;94087.72;;;19.43;63.00
77041;BME280;65974;42.664;23.264;2023-08-01T05:49:27;94091.66;;;19.51;62.67
77041;BME280;65974;42.664;23.264;2023-08-01T05:51:54;94080.13;;;19.59;62.46
77041;BME280;65974;42.664;23.264;2023-08-01T05:54:20;94077.63;;;19.65;61.45
77041;BME280;65974;42.664;23.264;2023-08-01T05:56:45;94077.06;;;19.70;60.62
77041;BME280;65974;42.664;23.264;2023-08-01T05:59:11;94076.63;;;19.71;60.30
77041;BME280;65974;42.664;23.264;2023-08-01T06:01:36;94084.00;;;19.80;60.12
77041;BME280;65974;42.664;23.264;2023-08-01T06:04:02;94083.72;;;19.87;59.93
77041;BME280;65974;42.664;23.264;2023-08-01T06:06:27;94077.59;;;19.86;58.83
77041;BME280;65974;42.664;23.264;2023-08-01T06:08:52;94072.03;;;19.90;58.67
77041;BME280;65974;42.664;23.264;2023-08-01T06:11:18;94064.06;;;19.95;58.67
77041;BME280;65974;42.664;23.264;2023-08-01T06:13:43;94071.31;;;19.98;58.78
77041;BME280;65974;42.664;23.264;2023-08-01T06:16:09;94077.50;;;20.08;59.03
77041;BME280;65974;42.664;23.264;2023-08-01T06:18:35;94073.75;;;20.14;58.55
77041;BME280;65974;42.664;23.264;2023-08-01T06:21:00;94070.78;;;20.22;58.47
77041;BME280;65974;42.664;23.264;2023-08-01T06:23:27;94072.31;;;20.32;57.67
77041;BME280;65974;42.664;23.264;2023-08-01T06:25:52;94070.09;;;20.39;56.48
77041;BME280;65974;42.664;23.264;2023-08-01T06:28:17;94070.22;;;20.45;56.67
77041;BME280;65974;42.664;23.264;2023-08-01T06:30:43;94077.00;;;20.49;56.17
77041;BME280;65974;42.664;23.264;2023-08-01T06:33:08;94081.22;;;20.50;55.40
77041;BME280;65974;42.664;23.264;2023-08-01T06:35:34;94067.25;;;20.52;54.71
77041;BME280;65974;42.664;23.264;2023-08-01T06:37:59;94066.06;;;20.53;54.60
77041;BME280;65974;42.664;23.264;2023-08-01T06:40:24;94058.66;;;20.53;54.32
77041;BME280;65974;42.664;23.264;2023-08-01T06:42:50;94063.94;;;20.57;54.40
77041;BME280;65974;42.664;23.264;2023-08-01T06:45:15;94062.16;;;20.63;55.86
77041;BME280;65974;42.664;23.264;2023-08-01T06:47:41;94061.38;;;20.62;55.47
77041;BME280;65974;42.664;23.264;2023-08-01T06:50:07;94063.94;;;20.66;55.19
77041;BME280;65974;42.664;23.264;2023-08-01T06:52:32;94064.88;;;20.72;55.26
77041;BME280;65974;42.664;23.264;2023-08-01T06:54:58;94063.19;;;20.74;54.93
77041;BME280;65974;42.664;23.264;2023-08-01T06:57:23;94054.47;;;20.79;55.18
77041;BME280;65974;42.664;23.264;2023-08-01T06:59:49;94064.56;;;20.88;55.04
77041;BME280;65974;42.664;23.264;2023-08-01T07:02:14;94067.41;;;20.94;55.20
77041;BME280;65974;42.664;23.264;2023-08-01T07:04:40;94069.81;;;21.01;55.63
77041;BME280;65974;42.664;23.264;2023-08-01T07:07:06;94059.47;;;21.08;55.24
77041;BME280;65974;42.664;23.264;2023-08-01T07:09:31;94067.72;;;21.14;54.83
77041;BME280;65974;42.664;23.264;2023-08-01T07:11:56;94057.63;;;21.23;54.58
77041;BME280;65974;42.664;23.264;2023-08-01T07:14:22;94066.38;;;21.27;54.25
77041;BME280;65974;42.664;23.264;2023-08-01T07:16:47;94049.19;;;21.30;54.06
77041;BME280;65974;42.664;23.264;2023-08-01T07:19:13;94053.25;;;21.35;54.86
77041;BME280;65974;42.664;23.264;2023-08-01T07:21:38;94047.81;;;21.35;54.42
77041;BME280;65974;42.664;23.264;2023-08-01T07:24:04;94046.31;;;21.34;54.52
77041;BME280;65974;42.664;23.264;2023-08-01T07:26:29;94044.81;;;21.42;54.44
77041;BME280;65974;42.664;23.264;2023-08-01T07:28:55;94041.78;;;21.40;54.18
77041;BME280;65974;42.664;23.264;2023-08-01T07:31:21;94046.28;;;21.43;54.54
77041;BME280;65974;42.664;23.264;2023-08-01T07:33:46;94049.16;;;21.48;54.31
77041;BME280;65974;42.664;23.264;2023-08-01T07:36:11;94044.47;;;21.49;54.58
77041;BME280;65974;42.664;23.264;2023-08-01T07:38:37;94042.59;;;21.64;54.75
77041;BME280;65974;42.664;23.264;2023-08-01T07:41:06;94038.03;;;21.79;54.45
77041;BME280;65974;42.664;23.264;2023-08-01T07:43:32;94041.50;;;21.80;56.30
77041;BME280;65974;42.664;23.264;2023-08-01T07:45:59;94040.75;;;21.88;55.55
77041;BME280;65974;42.664;23.264;2023-08-01T07:48:25;94048.25;;;21.93;54.59
77041;BME280;65974;42.664;23.264;2023-08-01T07:50:50;94046.84;;;21.98;53.61
77041;BME280;65974;42.664;23.264;2023-08-01T07:53:16;94043.97;;;22.10;54.40
77041;BME280;65974;42.664;23.264;2023-08-01T07:55:41;94033.53;;;22.09;53.61
77041;BME280;65974;42.664;23.264;2023-08-01T07:58:07;94036.69;;;22.16;55.32
77041;BME280;65974;42.664;23.264;2023-08-01T08:00:34;94032.94;;;22.37;53.08
77041;BME280;65974;42.664;23.264;2023-08-01T08:03:00;94038.94;;;22.42;53.80
77041;BME280;65974;42.664;23.264;2023-08-01T08:05:25;94030.78;;;22.42;55.24
77041;BME280;65974;42.664;23.264;2023-08-01T08:07:51;94032.22;;;22.52;52.55
77041;BME280;65974;42.664;23.264;2023-08-01T08:10:16;94028.94;;;22.48;52.09
77041;BME280;65974;42.664;23.264;2023-08-01T08:12:41;94026.22;;;22.48;53.28
77041;BME280;65974;42.664;23.264;2023-08-01T08:15:07;94029.50;;;22.52;53.25
77041;BME280;65974;42.664;23.264;2023-08-01T08:17:33;94014.97;;;22.64;54.11
77041;BME280;65974;42.664;23.264;2023-08-01T08:19:58;94016.69;;;22.76;53.03
77041;BME280;65974;42.664;23.264;2023-08-01T08:22:24;94018.00;;;22.80;51.75
77041;BME280;65974;42.664;23.264;2023-08-01T08:24:49;94010.91;;;22.83;51.53
77041;BME280;65974;42.664;23.264;2023-08-01T08:27:15;94014.63;;;22.85;52.12
77041;BME280;65974;42.664;23.264;2023-08-01T08:29:40;94006.97;;;22.98;52.80
77041;BME280;65974;42.664;23.264;2023-08-01T08:32:06;94014.13;;;23.10;51.18
77041;BME280;65974;42.664;23.264;2023-08-01T08:34:32;94014.41;;;23.12;51.00
77041;BME280;65974;42.664;23.264;2023-08-01T08:36:57;94002.69;;;23.21;52.24
77041;BME280;65974;42.664;23.264;2023-08-01T08:39:23;94005.31;;;23.30;52.54
77041;BME280;65974;42.664;23.264;2023-08-01T08:41:51;94003.34;;;23.45;51.36
77041;BME280;65974;42.664;23.264;2023-08-01T08:44:18;93993.31;;;23.51;52.02
77041;BME280;65974;42.664;23.264;2023-08-01T08:46:51;93997.78;;;23.69;50.30
77041;BME280;65974;42.664;23.264;2023-08-01T08:49:19;93999.38;;;23.75;50.62
77041;BME280;65974;42.664;23.264;2023-08-01T08:51:46;93988.50;;;23.75;50.45
77041;BME280;65974;42.664;23.264;2023-08-01T08:54:13;93985.22;;;23.71;49.50
77041;BME280;65974;42.664;23.264;2023-08-01T08:56:40;93987.41;;;23.67;49.02
77041;BME280;65974;42.664;23.264;2023-08-01T08:59:07;93979.72;;;23.66;49.79
77041;BME280;65974;42.664;23.264;2023-08-01T09:01:32;93985.59;;;23.64;50.39
77041;BME280;65974;42.664;23.264;2023-08-01T09:03:59;93980.53;;;23.72;49.77
77041;BME280;65974;42.664;23.264;2023-08-01T09:06:30;93977.97;;;23.83;49.43
77041;BME280;65974;42.664;23.264;2023-08-01T09:09:04;93971.09;;;23.87;51.08
77041;BME280;65974;42.664;23.264;2023-08-01T09:11:39;93973.16;;;23.92;50.36
77041;BME280;65974;42.664;23.264;2023-08-01T09:14:05;93969.38;;;24.05;48.63
77041;BME280;65974;42.664;23.264;2023-08-01T09:16:32;93963.38;;;24.01;48.33
77041;BME280;65974;42.664;23.264;2023-08-01T09:18:58;93968.81;;;24.01;48.56
77041;BME280;65974;42.664;23.264;2023-08-01T09:21:24;93965.56;;;23.97;48.72
77041;BME280;65974;42.664;23.264;2023-08-01T09:23:50;93954.41;;;23.95;48.55
77041;BME280;65974;42.664;23.264;2023-08-01T09:26:18;93954.00;;;24.02;48.96
77041;BME280;65974;42.664;23.264;2023-08-01T09:28:44;93953.06;;;24.05;48.86
77041;BME280;65974;42.664;23.264;2023-08-01T09:31:26;93949.88;;;24.06;48.39
77041;BME280;65974;42.664;23.264;2023-08-01T09:33:52;93953.88;;;24.11;49.73
77041;BME280;65974;42.664;23.264;2023-08-01T09:36:21;93944.56;;;24.37;48.47
77041;BME280;65974;42.664;23.264;2023-08-01T09:38:47;93946.94;;;24.50;49.13
77041;BME280;65974;42.664;23.264;2023-08-01T09:41:19;93944.56;;;24.57;47.74
77041;BME280;65974;42.664;23.264;2023-08-01T09:43:46;93931.75;;;24.63;48.14
77041;BME280;65974;42.664;23.264;2023-08-01T09:46:13;93940.50;;;24.73;49.29
77041;BME280;65974;42.664;23.264;2023-08-01T09:48:39;93938.41;;;24.83;47.60
77041;BME280;65974;42.664;23.264;2023-08-01T09:51:12;93935.22;;;24.90;46.69
77041;BME280;65974;42.664;23.264;2023-08-01T09:53:52;93930.38;;;24.99;47.09
77041;BME280;65974;42.664;23.264;2023-08-01T09:56:26;93930.50;;;25.10;46.02
77041;BME280;65974;42.664;23.264;2023-08-01T09:58:53;93915.16;;;25.13;46.57
77041;BME280;65974;42.664;23.264;2023-08-01T10:01:22;93926.50;;;25.11;46.12
77041;BME280;65974;42.664;23.264;2023-08-01T10:03:52;93919.53;;;25.05;47.66
77041;BME280;65974;42.664;23.264;2023-08-01T10:06:27;93913.28;;;24.99;47.97
77041;BME280;65974;42.664;23.264;2023-08-01T10:08:53;93911.31;;;24.99;47.36
77041;BME280;65974;42.664;23.264;2023-08-01T10:11:22;93910.06;;;25.00;46.41
77041;BME280;65974;42.664;23.264;2023-08-01T10:13:48;93907.13;;;25.04;46.28
77041;BME280;65974;42.664;23.264;2023-08-01T10:16:14;93900.66;;;25.01;46.12
77041;BME280;65974;42.664;23.264;2023-08-01T10:18:40;93896.41;;;24.95;45.63
77041;BME280;65974;42.664;23.264;2023-08-01T10:21:10;93907.13;;;25.04;45.75
77041;BME280;65974;42.664;23.264;2023-08-01T10:23:37;93893.81;;;25.11;44.23
77041;BME280;65974;42.664;23.264;2023-08-01T10:26:07;93893.59;;;25.15;45.43
77041;BME280;65974;42.664;23.264;2023-08-01T10:28:41;93895.13;;;25.21;45.49
77041;BME280;65974;42.664;23.264;2023-08-01T10:31:16;93885.97;;;25.24;44.94
77041;BME280;65974;42.664;23.264;2023-08-01T10:33:50;93880.09;;;25.31;44.94
77041;BME280;65974;42.664;23.264;2023-08-01T10:36:20;93877.88;;;25.35;44.76
77041;BME280;65974;42.664;23.264;2023-08-01T10:38:56;93877.41;;;25.37;45.90
77041;BME280;65974;42.664;23.264;2023-08-01T10:41:26;93870.72;;;25.38;45.02
77041;BME280;65974;42.664;23.264;2023-08-01T10:44:03;93872.31;;;25.56;41.10
77041;BME280;65974;42.664;23.264;2023-08-01T10:46:29;93869.75;;;25.83;37.05
77041;BME280;65974;42.664;23.264;2023-08-01T10:48:54;93860.59;;;25.92;37.06
77041;BME280;65974;42.664;23.264;2023-08-01T10:51:19;93863.47;;;26.08;34.54
77041;BME280;65974;42.664;23.264;2023-08-01T10:53:45;93855.28;;;26.20;34.01
77041;BME280;65974;42.664;23.264;2023-08-01T10:56:19;93860.53;;;26.23;34.23
77041;BME280;65974;42.664;23.264;2023-08-01T10:58:45;93854.56;;;26.30;33.64
77041;BME280;65974;42.664;23.264;2023-08-01T11:01:10;93857.34;;;26.41;34.39
77041;BME280;65974;42.664;23.264;2023-08-01T11:03:37;93845.69;;;26.46;35.04
77041;BME280;65974;42.664;23.264;2023-08-01T11:06:03;93839.72;;;26.48;32.92
77041;BME280;65974;42.664;23.264;2023-08-01T11:08:40;93836.50;;;26.60;32.83
77041;BME280;65974;42.664;23.264;2023-08-01T11:11:08;93832.78;;;26.63;33.13
77041;BME280;65974;42.664;23.264;2023-08-01T11:13:35;93837.81;;;26.76;33.03
77041;BME280;65974;42.664;23.264;2023-08-01T11:16:04;93835.09;;;26.87;32.39
77041;BME280;65974;42.664;23.264;2023-08-01T11:18:43;93828.13;;;26.92;33.16
77041;BME280;65974;42.664;23.264;2023-08-01T11:21:09;93814.94;;;26.96;32.38
77041;BME280;65974;42.664;23.264;2023-08-01T11:23:35;93810.72;;;26.95;30.99
77041;BME280;65974;42.664;23.264;2023-08-01T11:26:09;93812.22;;;27.07;31.13
77041;BME280;65974;42.664;23.264;2023-08-01T11:28:35;93812.72;;;27.11;28.66
77041;BME280;65974;42.664;23.264;2023-08-01T11:31:00;93810.44;;;27.09;30.13
77041;BME280;65974;42.664;23.264;2023-08-01T11:33:26;93808.22;;;27.08;30.83
77041;BME280;65974;42.664;23.264;2023-08-01T11:35:55;93805.47;;;27.13;31.84
77041;BME280;65974;42.664;23.264;2023-08-01T11:38:29;93799.03;;;27.11;32.72
77041;BME280;65974;42.664;23.264;2023-08-01T11:40:56;93806.47;;;27.21;32.66
77041;BME280;65974;42.664;23.264;2023-08-01T11:43:23;93799.97;;;27.41;32.02
77041;BME280;65974;42.664;23.264;2023-08-01T11:45:52;93793.25;;;27.47;32.31
77041;BME280;65974;42.664;23.264;2023-08-01T11:48:21;93794.72;;;27.54;31.43
77041;BME280;65974;42.664;23.264;2023-08-01T11:50:47;93796.22;;;27.55;31.09
77041;BME280;65974;42.664;23.264;2023-08-01T11:53:22;93784.03;;;27.61;31.12
77041;BME280;65974;42.664;23.264;2023-08-01T11:55:49;93786.72;;;27.73;35.68
77041;BME280;65974;42.664;23.264;2023-08-01T12:01:21;93778.53;;;27.73;34.60
77041;BME280;65974;42.664;23.264;2023-08-01T12:03:52;93775.78;;;27.67;36.13
77041;BME280;65974;42.664;23.264;2023-08-01T12:06:20;93777.28;;;27.68;34.64
77041;BME280;65974;42.664;23.264;2023-08-01T12:08:48;93768.53;;;27.81;34.69
77041;BME280;65974;42.664;23.264;2023-08-01T12:11:27;93765.22;;;27.93;30.28
77041;BME280;65974;42.664;23.264;2023-08-01T12:14:07;93770.13;;;28.11;28.92
77041;BME280;65974;42.664;23.264;2023-08-01T12:16:35;93763.59;;;28.25;28.42
77041;BME280;65974;42.664;23.264;2023-08-01T12:19:01;93762.53;;;28.34;28.99
77041;BME280;65974;42.664;23.264;2023-08-01T12:21:27;93756.69;;;28.49;27.92
77041;BME280;65974;42.664;23.264;2023-08-01T12:23:53;93755.63;;;28.63;27.60
77041;BME280;65974;42.664;23.264;2023-08-01T12:26:18;93756.31;;;28.69;27.86
77041;BME280;65974;42.664;23.264;2023-08-01T12:28:44;93755.16;;;28.88;26.89
77041;BME280;65974;42.664;23.264;2023-08-01T12:31:09;93751.31;;;29.02;26.71
77041;BME280;65974;42.664;23.264;2023-08-01T12:33:35;93749.03;;;29.06;26.61
77041;BME280;65974;42.664;23.264;2023-08-01T12:36:00;93743.19;;;29.15;25.83
77041;BME280;65974;42.664;23.264;2023-08-01T12:38:27;93740.47;;;29.15;25.86
77041;BME280;65974;42.664;23.264;2023-08-01T12:40:52;93742.31;;;29.32;26.45
77041;BME280;65974;42.664;23.264;2023-08-01T12:43:18;93742.19;;;29.43;26.05
77041;BME280;65974;42.664;23.264;2023-08-01T12:45:43;93740.63;;;29.47;25.70
77041;BME280;65974;42.664;23.264;2023-08-01T12:48:09;93738.66;;;29.66;25.87
77041;BME280;65974;42.664;23.264;2023-08-01T12:50:34;93738.09;;;29.73;25.73
77041;BME280;65974;42.664;23.264;2023-08-01T12:52:59;93738.72;;;29.85;25.39